createdAt,value
2022-09-23T00:01:15.793Z,91464.28
2022-09-23T00:03:47.710Z,91482.69
2022-09-23T00:06:17.421Z,91481.53
2022-09-23T00:08:44.591Z,91487.56
2022-09-23T00:11:17.360Z,91480.91
2022-09-23T00:13:46.770Z,91483.41
2022-09-23T00:16:16.890Z,91470.94
2022-09-23T00:18:44.390Z,91465.63
2022-09-23T00:21:14.867Z,91476.16
2022-09-23T00:23:42.997Z,91470.13
2022-09-23T00:26:13.151Z,91463.53
2022-09-23T00:28:40.670Z,91468.59
2022-09-23T00:31:20.108Z,91460.28
2022-09-23T00:33:47.381Z,91473.75
2022-09-23T00:36:15.993Z,91474.09
2022-09-23T00:38:44.220Z,91459.28
2022-09-23T00:41:11.953Z,91462.03
2022-09-23T00:43:41.605Z,91466.84
2022-09-23T00:46:11.753Z,91460.53
2022-09-23T00:48:41.259Z,91457.00
2022-09-23T00:51:10.622Z,91462.22
2022-09-23T00:53:38.851Z,91461.47
2022-09-23T00:56:10.031Z,91465.06
2022-09-23T00:58:41.133Z,91464.88
2022-09-23T01:01:08.297Z,91455.72
2022-09-23T01:03:35.253Z,91468.09
2022-09-23T01:06:02.016Z,91469.22
2022-09-23T01:08:29.193Z,91461.53
2022-09-23T01:11:26.719Z,91462.78
2022-09-23T01:14:32.179Z,91469.22
2022-09-23T01:17:09.411Z,91467.44
2022-09-23T01:19:36.508Z,91464.13
2022-09-23T01:22:22.039Z,91460.59
2022-09-23T01:25:10.377Z,91463.38
2022-09-23T01:28:04.575Z,91473.13
2022-09-23T01:30:34.209Z,91469.75
2022-09-23T01:33:13.375Z,91473.94
2022-09-23T01:36:00.829Z,91481.56
2022-09-23T01:38:40.254Z,91475.25
2022-09-23T01:41:31.508Z,91481.22
2022-09-23T01:44:11.490Z,91477.03
2022-09-23T01:47:04.385Z,91471.56
2022-09-23T01:49:40.242Z,91470.09
2022-09-23T01:52:18.456Z,91478.28
2022-09-23T01:55:16.709Z,91477.69
2022-09-23T01:57:48.944Z,91442.66
2022-09-23T02:00:18.401Z,91463.53
2022-09-23T02:03:12.737Z,91473.44
2022-09-23T02:05:54.139Z,91474.28
2022-09-23T02:09:16.430Z,91476.97
2022-09-23T02:11:48.913Z,91473.88
2022-09-23T02:14:24.999Z,91482.75
2022-09-23T02:16:56.123Z,91473.88
2022-09-23T02:19:41.995Z,91483.97
2022-09-23T02:22:15.363Z,91473.44
2022-09-23T02:24:42.132Z,91469.91
2022-09-23T02:27:24.155Z,91474.88
2022-09-23T02:30:19.046Z,91474.03
2022-09-23T02:33:05.360Z,91479.38
2022-09-23T02:35:43.035Z,91476.63
2022-09-23T02:38:24.385Z,91470.47
2022-09-23T02:41:07.632Z,91469.97
2022-09-23T02:43:40.120Z,91482.13
2022-09-23T02:46:07.605Z,91476.47
2022-09-23T02:48:41.369Z,91465.72
2022-09-23T02:51:08.637Z,91475.16
2022-09-23T02:53:35.538Z,91479.25
2022-09-23T02:56:13.604Z,91485.56
2022-09-23T02:58:40.427Z,91477.19
2022-09-23T03:01:31.568Z,91479.72
2022-09-23T03:04:23.321Z,91473.09
2022-09-23T03:07:13.205Z,91478.41
2022-09-23T03:09:57.920Z,91478.00
2022-09-23T03:12:39.874Z,91477.47
2022-09-23T03:15:15.463Z,91478.75
2022-09-23T03:18:00.537Z,91483.13
2022-09-23T03:20:40.821Z,91476.19
2022-09-23T03:23:10.671Z,91483.56
2022-09-23T03:25:41.303Z,91480.44
2022-09-23T03:28:09.223Z,91483.16
2022-09-23T03:30:37.090Z,91486.88
2022-09-23T03:33:08.264Z,91482.97
2022-09-23T03:35:59.605Z,91497.06
2022-09-23T03:38:32.994Z,91489.25
2022-09-23T03:41:03.002Z,91497.47
2022-09-23T03:43:31.237Z,91495.31
2022-09-23T03:45:59.521Z,91481.63
2022-09-23T03:48:26.246Z,91499.91
2022-09-23T03:50:53.182Z,91499.59
2022-09-23T03:53:21.099Z,91500.63
2022-09-23T03:55:48.434Z,91505.28
2022-09-23T03:58:16.094Z,91503.28
2022-09-23T04:00:43.645Z,91508.50
2022-09-23T04:03:11.839Z,91494.47
2022-09-23T04:05:39.310Z,91498.38
2022-09-23T04:08:06.436Z,91506.34
2022-09-23T04:10:33.214Z,91490.41
2022-09-23T04:12:59.955Z,91496.66
2022-09-23T04:15:26.737Z,91493.94
2022-09-23T04:17:53.452Z,91495.44
2022-09-23T04:20:20.707Z,91500.44
2022-09-23T04:22:47.431Z,91495.03
2022-09-23T04:25:14.298Z,91502.84
2022-09-23T04:27:41.026Z,91504.84
2022-09-23T04:30:08.448Z,91501.16
2022-09-23T04:32:35.185Z,91498.28
2022-09-23T04:35:02.091Z,91489.88
2022-09-23T04:37:29.607Z,91495.44
2022-09-23T04:39:56.688Z,91509.75
2022-09-23T04:42:23.458Z,91502.72
2022-09-23T04:44:50.259Z,91494.06
2022-09-23T04:47:19.302Z,91504.06
2022-09-23T04:49:46.127Z,91507.09
2022-09-23T04:52:12.782Z,91516.03
2022-09-23T04:54:41.752Z,91506.53
2022-09-23T04:57:11.214Z,91511.09
2022-09-23T04:59:37.886Z,91517.75
2022-09-23T05:02:04.841Z,91496.47
2022-09-23T05:04:32.483Z,91507.94
2022-09-23T05:07:02.300Z,91514.03
2022-09-23T05:09:30.143Z,91509.09
2022-09-23T05:11:56.867Z,91498.31
2022-09-23T05:14:23.586Z,91509.09
2022-09-23T05:16:50.408Z,91506.41
2022-09-23T05:19:17.076Z,91509.00
2022-09-23T05:21:43.730Z,91512.72
2022-09-23T05:24:12.515Z,91512.91
2022-09-23T05:26:40.063Z,91515.00
2022-09-23T05:29:06.857Z,91509.31
2022-09-23T05:31:33.703Z,91504.13
2022-09-23T05:34:05.197Z,91507.19
2022-09-23T05:36:38.234Z,91508.03
2022-09-23T05:39:06.409Z,91508.31
2022-09-23T05:41:34.051Z,91501.34
2022-09-23T05:44:01.034Z,91505.81
2022-09-23T05:46:29.772Z,91507.03
2022-09-23T05:49:02.137Z,91510.47
2022-09-23T05:51:31.298Z,91505.41
2022-09-23T05:53:59.000Z,91508.22
2022-09-23T05:56:27.794Z,91509.56
2022-09-23T05:58:56.484Z,91502.09
2022-09-23T06:01:26.594Z,91509.53
2022-09-23T06:03:55.137Z,91502.50
2022-09-23T06:06:29.293Z,91492.75
2022-09-23T06:08:56.703Z,91500.47
2022-09-23T06:11:23.387Z,91499.69
2022-09-23T06:13:55.195Z,91506.56
2022-09-23T06:16:22.165Z,91496.47
2022-09-23T06:18:48.963Z,91501.34
2022-09-23T06:21:17.234Z,91499.63
2022-09-23T06:23:45.457Z,91501.38
2022-09-23T06:26:14.778Z,91506.22
2022-09-23T06:28:44.151Z,91506.06
2022-09-23T06:31:14.048Z,91503.13
2022-09-23T06:33:43.124Z,91500.97
2022-09-23T06:36:11.420Z,91498.44
2022-09-23T06:38:44.673Z,91510.09
2022-09-23T06:41:12.736Z,91502.97
2022-09-23T06:43:39.955Z,91498.97
2022-09-23T06:46:08.785Z,91508.53
2022-09-23T06:48:36.122Z,91500.13
2022-09-23T06:51:07.355Z,91501.75
2022-09-23T06:53:34.984Z,91497.16
2022-09-23T06:56:05.720Z,91499.72
2022-09-23T06:58:36.727Z,91491.47
2022-09-23T07:01:17.684Z,91500.03
2022-09-23T07:03:46.272Z,91500.47
2022-09-23T07:06:13.327Z,91502.97
2022-09-23T07:08:44.415Z,91488.09
2022-09-23T07:11:13.496Z,91507.53
2022-09-23T07:13:42.341Z,91505.66
2022-09-23T07:16:10.971Z,91508.50
2022-09-23T07:18:38.295Z,91517.06
2022-09-23T07:21:23.984Z,91521.09
2022-09-23T07:23:51.984Z,91519.00
2022-09-23T07:26:19.930Z,91509.09
2022-09-23T07:28:47.258Z,91513.03
2022-09-23T07:31:25.223Z,91505.84
2022-09-23T07:34:01.342Z,91503.56
2022-09-23T07:36:31.454Z,91505.78
2022-09-23T07:39:01.827Z,91516.28
2022-09-23T07:41:30.359Z,91511.06
2022-09-23T07:44:00.612Z,91509.31
2022-09-23T07:46:30.305Z,91519.88
2022-09-23T07:48:57.775Z,91512.38
2022-09-23T07:51:36.267Z,91517.28
2022-09-23T07:54:10.089Z,91515.13
2022-09-23T07:56:38.198Z,91512.03
2022-09-23T07:59:08.779Z,91514.09
2022-09-23T08:01:38.709Z,91507.09
2022-09-23T08:04:14.588Z,91500.06
2022-09-23T08:06:43.321Z,91502.75
2022-09-23T08:09:10.894Z,91493.03
2022-09-23T08:11:42.124Z,91495.06
2022-09-23T08:14:11.037Z,91500.53
2022-09-23T08:16:37.766Z,91498.13
2022-09-23T08:21:32.726Z,91507.84
2022-09-23T08:23:59.594Z,91510.75
2022-09-23T08:26:27.157Z,91509.00
2022-09-23T08:28:54.685Z,91503.31
2022-09-23T08:31:23.040Z,91508.22
2022-09-23T08:33:57.740Z,91516.75
2022-09-23T08:36:25.625Z,91517.22
2022-09-23T08:38:52.699Z,91506.16
2022-09-23T08:41:19.300Z,91494.53
2022-09-23T08:43:54.116Z,91497.56
2022-09-23T08:46:49.235Z,91474.97
2022-09-23T08:49:33.523Z,91491.66
2022-09-23T08:52:08.290Z,91489.88
2022-09-23T08:54:35.019Z,91490.47
2022-09-23T08:57:05.312Z,91495.53
2022-09-23T08:59:42.193Z,91506.44
2022-09-23T09:02:27.935Z,91508.06
2022-09-23T09:05:00.171Z,91502.88
2022-09-23T09:07:37.389Z,91508.84
2022-09-23T09:10:23.631Z,91505.44
2022-09-23T09:13:01.023Z,91504.03
2022-09-23T09:15:28.833Z,91503.06
2022-09-23T09:18:07.902Z,91494.06
2022-09-23T09:20:43.858Z,91490.63
2022-09-23T09:23:29.834Z,91488.63
2022-09-23T09:26:01.557Z,91484.31
2022-09-23T09:28:40.781Z,91477.38
2022-09-23T09:31:38.508Z,91482.91
2022-09-23T09:34:13.303Z,91483.38
2022-09-23T09:36:48.786Z,91478.34
2022-09-23T09:39:16.357Z,91477.13
2022-09-23T09:41:48.757Z,91479.75
2022-09-23T09:44:40.808Z,91480.78
2022-09-23T09:47:28.458Z,91480.28
2022-09-23T09:50:07.644Z,91483.72
2022-09-23T09:52:38.888Z,91483.16
2022-09-23T09:55:14.824Z,91494.13
2022-09-23T09:57:49.815Z,91495.25
2022-09-23T10:00:22.419Z,91500.41
2022-09-23T10:02:53.818Z,91490.28
2022-09-23T10:05:28.431Z,91512.16
2022-09-23T10:07:55.239Z,91515.66
2022-09-23T10:10:32.870Z,91518.78
2022-09-23T10:13:15.294Z,91526.81
2022-09-23T10:15:45.232Z,91531.03
2022-09-23T10:18:30.548Z,91527.97
2022-09-23T10:21:15.276Z,91535.03
2022-09-23T10:23:44.951Z,91554.06
2022-09-23T10:26:13.192Z,91543.78
2022-09-23T10:28:59.716Z,91549.00
2022-09-23T10:31:27.735Z,91550.56
2022-09-23T10:34:00.490Z,91552.16
2022-09-23T10:36:29.478Z,91547.72
2022-09-23T10:39:21.934Z,91539.97
2022-09-23T10:42:37.713Z,91542.13
2022-09-23T10:45:38.589Z,91525.47
2022-09-23T10:48:36.142Z,91531.53
2022-09-23T10:51:31.952Z,91521.47
2022-09-23T10:54:09.778Z,91525.88
2022-09-23T10:56:43.039Z,91514.81
2022-09-23T10:59:27.988Z,91501.66
2022-09-23T11:02:22.047Z,91505.75
2022-09-23T11:05:03.994Z,91492.28
2022-09-23T11:07:37.376Z,91491.34
2022-09-23T11:10:45.465Z,91477.50
2022-09-23T11:13:28.691Z,91478.53
2022-09-23T11:16:16.888Z,91472.53
2022-09-23T11:19:01.020Z,91468.06
2022-09-23T11:21:33.808Z,91465.50
2022-09-23T11:24:18.438Z,91471.41
2022-09-23T11:26:45.207Z,91477.66
2022-09-23T11:29:23.982Z,91474.34
2022-09-23T11:32:15.410Z,91478.41
2022-09-23T11:35:13.241Z,91481.56
2022-09-23T11:37:52.296Z,91480.72
2022-09-23T11:40:31.150Z,91485.28
2022-09-23T11:43:10.316Z,91482.59
2022-09-23T11:45:45.022Z,91480.78
2022-09-23T11:48:30.799Z,91473.69
2022-09-23T11:51:07.204Z,91477.38
2022-09-23T11:53:46.513Z,91462.84
2022-09-23T11:56:35.397Z,91470.19
2022-09-23T11:59:03.528Z,91466.72
2022-09-23T12:01:48.092Z,91456.25
2022-09-23T12:04:28.853Z,91466.66
2022-09-23T12:07:24.874Z,91462.41
2022-09-23T12:10:01.331Z,91463.84
2022-09-23T12:12:56.175Z,91470.47
2022-09-23T12:15:34.436Z,91479.19
2022-09-23T12:18:13.035Z,91476.63
2022-09-23T12:20:58.077Z,91478.06
2022-09-23T12:23:24.868Z,91474.00
2022-09-23T12:26:09.765Z,91462.41
2022-09-23T12:28:45.180Z,91475.22
2022-09-23T12:31:16.304Z,91471.84
2022-09-23T12:34:04.599Z,91477.28
2022-09-23T12:36:35.466Z,91472.88
2022-09-23T12:39:04.636Z,91467.78
2022-09-23T12:41:41.630Z,91466.19
2022-09-23T12:44:12.641Z,91463.25
2022-09-23T12:46:41.435Z,91471.34
2022-09-23T12:49:30.079Z,91468.91
2022-09-23T12:52:12.210Z,91480.19
2022-09-23T12:54:40.824Z,91465.91
2022-09-23T12:57:13.147Z,91474.19
2022-09-23T12:59:52.605Z,91477.19
2022-09-23T13:02:28.638Z,91473.78
2022-09-23T13:05:38.011Z,91471.53
2022-09-23T13:08:37.834Z,91471.16
2022-09-23T13:11:08.636Z,91476.44
2022-09-23T13:13:42.240Z,91469.63
2022-09-23T13:16:32.556Z,91472.28
2022-09-23T13:19:00.967Z,91466.28
2022-09-23T13:21:42.958Z,91460.63
2022-09-23T13:24:31.358Z,91471.16
2022-09-23T13:27:07.081Z,91468.50
2022-09-23T13:29:55.963Z,91463.63
2022-09-23T13:32:29.012Z,91477.09
2022-09-23T13:35:06.128Z,91466.97
2022-09-23T13:37:43.305Z,91477.53
2022-09-23T13:40:27.507Z,91470.38
2022-09-23T13:43:06.403Z,91475.66
2022-09-23T13:45:38.438Z,91461.78
2022-09-23T13:48:13.620Z,91470.00
2022-09-23T13:50:45.350Z,91471.91
2022-09-23T13:53:17.874Z,91477.88
2022-09-23T13:55:47.921Z,91469.56
2022-09-23T13:58:24.113Z,91470.31
2022-09-23T14:00:52.010Z,91473.34
2022-09-23T14:03:37.038Z,91475.88
2022-09-23T14:06:14.521Z,91470.19
2022-09-23T14:08:46.048Z,91473.63
2022-09-23T14:11:22.492Z,91465.72
2022-09-23T14:13:54.996Z,91478.19
2022-09-23T14:16:26.841Z,91475.66
2022-09-23T14:19:00.355Z,91477.19
2022-09-23T14:21:37.004Z,91479.38
2022-09-23T14:24:17.470Z,91476.00
2022-09-23T14:26:49.268Z,91477.44
2022-09-23T14:29:46.580Z,91475.91
2022-09-23T14:32:22.839Z,91478.88
2022-09-23T14:34:50.805Z,91479.81
2022-09-23T14:37:51.559Z,91483.63
2022-09-23T14:40:21.158Z,91466.75
2022-09-23T14:43:15.911Z,91478.38
2022-09-23T14:45:47.443Z,91480.59
2022-09-23T14:48:22.678Z,91482.75
2022-09-23T14:50:52.618Z,91485.72
2022-09-23T14:53:19.593Z,91470.16
2022-09-23T14:55:52.934Z,91470.19
2022-09-23T14:58:23.167Z,91456.66
2022-09-23T15:00:57.090Z,91473.09
2022-09-23T15:03:24.125Z,91470.06
2022-09-23T15:05:57.942Z,91470.41
2022-09-23T15:08:27.672Z,91461.84
2022-09-23T15:10:55.079Z,91469.25
2022-09-23T15:13:27.417Z,91466.22
2022-09-23T15:15:55.001Z,91465.53
2022-09-23T15:18:42.957Z,91479.28
2022-09-23T15:21:19.406Z,91482.69
2022-09-23T15:23:57.527Z,91480.50
2022-09-23T15:26:26.803Z,91482.22
2022-09-23T15:28:58.512Z,91484.91
2022-09-23T15:31:26.670Z,91488.66
2022-09-23T15:33:53.453Z,91498.09
2022-09-23T15:36:28.658Z,91492.00
2022-09-23T15:38:57.288Z,91492.44
2022-09-23T15:41:24.501Z,91499.88
2022-09-23T15:43:51.579Z,91498.81
2022-09-23T15:46:28.252Z,91490.78
2022-09-23T15:49:03.286Z,91501.06
2022-09-23T15:51:30.642Z,91498.69
2022-09-23T15:53:57.809Z,91501.44
2022-09-23T15:56:25.039Z,91492.44
2022-09-23T15:58:51.806Z,91496.22
2022-09-23T16:01:24.588Z,91503.31
2022-09-23T16:03:51.342Z,91498.19
2022-09-23T16:06:20.424Z,91506.63
2022-09-23T16:08:48.004Z,91505.03
2022-09-23T16:11:31.924Z,91502.56
2022-09-23T16:14:00.785Z,91513.69
2022-09-23T16:16:28.063Z,91518.09
2022-09-23T16:18:55.825Z,91517.03
2022-09-23T16:21:26.204Z,91515.63
2022-09-23T16:23:54.515Z,91495.91
2022-09-23T16:26:27.708Z,91528.03
2022-09-23T16:28:56.379Z,91526.22
2022-09-23T16:31:25.660Z,91519.00
2022-09-23T16:33:53.729Z,91523.78
2022-09-23T16:36:27.146Z,91534.13
2022-09-23T16:38:57.928Z,91531.69
2022-09-23T16:41:26.407Z,91537.31
2022-09-23T16:43:53.730Z,91536.03
2022-09-23T16:46:21.533Z,91553.09
2022-09-23T16:48:52.571Z,91541.69
2022-09-23T16:51:22.446Z,91558.69
2022-09-23T16:53:50.665Z,91554.66
2022-09-23T16:56:24.359Z,91553.44
2022-09-23T16:58:55.105Z,91551.75
2022-09-23T17:01:46.070Z,91560.97
2022-09-23T17:04:14.802Z,91557.38
2022-09-23T17:06:50.277Z,91558.47
2022-09-23T17:09:23.462Z,91572.13
2022-09-23T17:12:09.433Z,91571.97
2022-09-23T17:14:36.807Z,91569.94
2022-09-23T17:17:03.494Z,91574.69
2022-09-23T17:19:30.293Z,91579.56
2022-09-23T17:21:56.986Z,91577.72
2022-09-23T17:24:23.796Z,91584.53
2022-09-23T17:26:53.301Z,91585.09
2022-09-23T17:29:20.309Z,91592.72
2022-09-23T17:31:47.219Z,91593.06
2022-09-23T17:34:14.138Z,91583.44
2022-09-23T17:36:40.882Z,91603.72
2022-09-23T17:39:07.745Z,91596.91
2022-09-23T17:41:34.463Z,91604.59
2022-09-23T17:44:01.437Z,91606.44
2022-09-23T17:46:30.234Z,91616.25
2022-09-23T17:48:57.836Z,91612.41
2022-09-23T17:51:25.561Z,91625.22
2022-09-23T17:53:52.669Z,91621.59
2022-09-23T17:56:27.121Z,91623.34
2022-09-23T17:58:54.150Z,91620.66
2022-09-23T18:01:23.169Z,91631.25
2022-09-23T18:04:01.442Z,91634.38
2022-09-23T18:06:31.956Z,91632.59
2022-09-23T18:09:06.899Z,91633.09
2022-09-23T18:11:35.494Z,91645.09
2022-09-23T18:14:06.680Z,91649.31
2022-09-23T18:16:40.521Z,91633.97
2022-09-23T18:19:11.741Z,91652.09
2022-09-23T18:21:41.180Z,91655.38
2022-09-23T18:24:34.779Z,91632.94
2022-09-23T18:27:02.480Z,91648.13
2022-09-23T18:29:29.666Z,91653.84
2022-09-23T18:31:56.713Z,91655.63
2022-09-23T18:34:23.682Z,91653.28
2022-09-23T18:36:50.816Z,91656.13
2022-09-23T18:39:17.648Z,91649.81
2022-09-23T18:41:44.321Z,91644.09
2022-09-23T18:44:11.636Z,91653.47
2022-09-23T18:46:38.575Z,91655.00
2022-09-23T18:49:24.459Z,91653.47
2022-09-23T18:51:52.477Z,91663.13
2022-09-23T18:54:22.152Z,91659.16
2022-09-23T18:56:50.069Z,91627.78
2022-09-23T18:59:19.781Z,91638.91
2022-09-23T19:01:48.800Z,91659.28
2022-09-23T19:04:18.420Z,91654.22
2022-09-23T19:06:46.030Z,91668.84
2022-09-23T19:09:14.292Z,91652.28
2022-09-23T19:11:41.220Z,91662.56
2022-09-23T19:14:11.453Z,91662.41
2022-09-23T19:16:40.254Z,91662.22
2022-09-23T19:19:07.891Z,91662.56
2022-09-23T19:21:35.187Z,91665.19
2022-09-23T19:24:06.473Z,91659.44
2022-09-23T19:26:39.588Z,91659.94
2022-09-23T19:29:09.259Z,91669.34
2022-09-23T19:31:40.737Z,91674.22
2022-09-23T19:34:16.715Z,91674.28
2022-09-23T19:36:45.834Z,91673.97
2022-09-23T19:39:19.131Z,91658.13
2022-09-23T19:41:46.984Z,91672.81
2022-09-23T19:44:14.363Z,91680.81
2022-09-23T19:46:44.602Z,91680.25
2022-09-23T19:49:12.188Z,91672.84
2022-09-23T19:51:39.359Z,91687.06
2022-09-23T19:54:07.557Z,91678.69
2022-09-23T19:56:34.925Z,91692.84
2022-09-23T19:59:03.133Z,91675.19
2022-09-23T20:01:32.042Z,91695.59
2022-09-23T20:03:59.446Z,91691.16
2022-09-23T20:06:30.372Z,91694.28
2022-09-23T20:08:59.641Z,91696.28
2022-09-23T20:11:28.665Z,91695.22
2022-09-23T20:14:02.298Z,91690.09
2022-09-23T20:16:32.520Z,91696.94
2022-09-23T20:19:01.068Z,91697.50
2022-09-23T20:21:29.427Z,91697.69
2022-09-23T20:23:57.928Z,91699.41
2022-09-23T20:26:43.792Z,91697.50
2022-09-23T20:29:11.110Z,91694.31
2022-09-23T20:31:40.655Z,91702.44
2022-09-23T20:34:08.415Z,91692.44
2022-09-23T20:36:36.208Z,91690.00
2022-09-23T20:39:09.651Z,91697.81
2022-09-23T20:41:37.959Z,91700.06
2022-09-23T20:44:12.540Z,91699.44
2022-09-23T20:46:48.262Z,91703.63
2022-09-23T20:49:17.358Z,91699.78
2022-09-23T20:51:44.345Z,91707.19
2022-09-23T20:54:12.173Z,91703.78
2022-09-23T20:56:39.222Z,91706.63
2022-09-23T20:59:05.892Z,91704.91
2022-09-23T21:01:35.363Z,91700.63
2022-09-23T21:04:04.902Z,91706.91
2022-09-23T21:06:33.593Z,91707.63
2022-09-23T21:09:00.929Z,91693.28
2022-09-23T21:11:29.188Z,91695.69
2022-09-23T21:13:56.674Z,91699.69
2022-09-23T21:16:24.165Z,91697.41
2022-09-23T21:18:51.918Z,91697.84
2022-09-23T21:21:20.034Z,91696.75
2022-09-23T21:23:47.729Z,91705.16
2022-09-23T21:26:19.883Z,91701.81
2022-09-23T21:28:48.785Z,91703.78
2022-09-23T21:31:28.422Z,91702.28
2022-09-23T21:33:56.951Z,91703.34
2022-09-23T21:36:24.915Z,91693.94
2022-09-23T21:38:52.576Z,91695.75
2022-09-23T21:41:19.930Z,91698.88
2022-09-23T21:43:47.568Z,91694.88
2022-09-23T21:46:17.412Z,91703.78
2022-09-23T21:48:44.284Z,91694.78
2022-09-23T21:51:16.497Z,91693.59
2022-09-23T21:53:44.916Z,91701.53
2022-09-23T21:56:19.666Z,91694.44
2022-09-23T21:58:47.529Z,91701.19
2022-09-23T22:01:35.673Z,91698.88
2022-09-23T22:04:10.287Z,91703.53
2022-09-23T22:06:38.691Z,91693.53
2022-09-23T22:09:10.921Z,91698.00
2022-09-23T22:11:57.946Z,91700.41
2022-09-23T22:14:26.060Z,91696.66
2022-09-23T22:16:59.962Z,91704.41
2022-09-23T22:19:35.854Z,91685.22
2022-09-23T22:22:07.784Z,91689.44
2022-09-23T22:24:34.559Z,91682.25
2022-09-23T22:27:01.363Z,91691.34
2022-09-23T22:29:46.514Z,91693.28
2022-09-23T22:32:32.016Z,91688.94
2022-09-23T22:34:58.693Z,91659.63
2022-09-23T22:37:32.898Z,91694.19
2022-09-23T22:40:00.564Z,91697.09
2022-09-23T22:42:28.037Z,91687.84
2022-09-23T22:44:56.177Z,91703.91
2022-09-23T22:47:23.640Z,91702.69
2022-09-23T22:49:55.620Z,91711.09
2022-09-23T22:52:24.659Z,91694.53
2022-09-23T22:54:52.252Z,91705.03
2022-09-23T22:57:19.679Z,91694.75
2022-09-23T22:59:48.430Z,91701.22
2022-09-23T23:02:18.151Z,91706.56
2022-09-23T23:04:47.081Z,91693.69
2022-09-23T23:07:15.010Z,91703.44
2022-09-23T23:09:41.937Z,91702.31
2022-09-23T23:12:08.651Z,91703.78
2022-09-23T23:14:36.433Z,91711.84
2022-09-23T23:17:07.310Z,91701.59
2022-09-23T23:19:35.413Z,91709.81
2022-09-23T23:22:02.257Z,91714.59
2022-09-23T23:24:29.128Z,91708.03
2022-09-23T23:26:55.851Z,91711.16
2022-09-23T23:29:23.525Z,91710.84
2022-09-23T23:31:51.200Z,91704.34
2022-09-23T23:34:20.583Z,91710.13
2022-09-23T23:36:55.293Z,91710.00
2022-09-23T23:39:23.682Z,91709.34
2022-09-23T23:41:59.432Z,91708.31
2022-09-23T23:44:27.177Z,91707.34
2022-09-23T23:46:54.948Z,91707.66
2022-09-23T23:49:22.057Z,91707.34
2022-09-23T23:51:48.864Z,91690.63
2022-09-23T23:54:15.694Z,91696.63
2022-09-23T23:56:43.210Z,91700.31
2022-09-23T23:59:09.870Z,91705.06
